Time;durP1;ratioP1;P1;durP2;ratioP2;P2;SDS_P1;SDS_P2;PMS_P1;PMS_P2;Temp;Humidity;BMP_temperature;BMP_pressure;BME280_temperature;BME280_humidity;BME280_pressure;Samples;Min_cycle;Max_cycle;Signal;HPM_P1;HPM_P2
2022/09/07 00:00:51;;;;;;;19.70;15.10;;;;;;;20.94;79.71;101342.38;5037864;28;20094;-90
2022/09/07 00:03:17;;;;;;;26.98;16.40;;;;;;;20.97;82.84;101364.25;5039292;28;20036;-90
2022/09/07 00:05:48;;;;;;;24.80;18.17;;;;;;;21.08;81.22;101396.09;5041344;28;20033;-90
2022/09/07 00:08:14;;;;;;;24.45;18.25;;;;;;;20.73;84.69;101423.25;5037741;28;20028;-92
2022/09/07 00:10:39;;;;;;;39.42;24.70;;;;;;;20.28;92.27;101393.13;5057122;28;20047;-89
2022/09/07 00:13:06;;;;;;;38.92;22.90;;;;;;;20.40;90.42;101378.31;5041449;28;20032;-88
2022/09/07 00:15:32;;;;;;;27.48;16.35;;;;;;;20.35;88.72;101367.44;5053949;28;20032;-96
2022/09/07 00:17:58;;;;;;;17.45;12.63;;;;;;;20.33;85.52;101366.28;5045692;28;20106;-89
2022/09/07 00:20:23;;;;;;;18.25;8.90;;;;;;;19.94;88.22;101353.53;5061422;28;20392;-86
2022/09/07 00:22:48;;;;;;;11.60;7.03;;;;;;;19.97;87.02;101358.38;5039240;28;20020;-82
2022/09/07 00:25:14;;;;;;;10.35;5.32;;;;;;;19.74;86.85;101336.44;5039564;28;20055;-83
2022/09/07 00:27:40;;;;;;;7.82;4.03;;;;;;;19.44;88.61;101324.69;5036175;28;20043;-85
2022/09/07 00:30:06;;;;;;;12.07;4.30;;;;;;;19.22;88.81;101327.03;5033210;28;20083;-84
2022/09/07 00:32:31;;;;;;;10.10;4.13;;;;;;;18.81;91.80;101319.47;5054870;28;20044;-84
2022/09/07 00:34:57;;;;;;;6.20;4.03;;;;;;;18.67;94.08;101322.44;5040171;28;20036;-84
2022/09/07 00:37:22;;;;;;;7.95;4.13;;;;;;;18.94;91.53;101307.56;5056766;28;20036;-85
2022/09/07 00:39:48;;;;;;;6.38;4.05;;;;;;;18.93;91.39;101314.47;5049305;28;20061;-84
2022/09/07 00:42:17;;;;;;;6.60;3.72;;;;;;;19.20;91.00;101309.63;5037651;28;20036;-84
2022/09/07 00:44:42;;;;;;;9.18;4.28;;;;;;;19.07;90.74;101300.88;5037356;28;20024;-85
2022/09/07 00:47:25;;;;;;;7.78;3.72;;;;;;;18.87;93.67;101283.75;5055148;28;20052;-85
2022/09/07 00:49:57;;;;;;;8.63;3.28;;;;;;;19.02;91.85;101281.50;5040753;28;20115;-86
2022/09/07 00:52:25;;;;;;;10.18;2.92;;;;;;;18.97;90.49;101267.00;5037104;28;20029;-82
2022/09/07 00:54:55;;;;;;;8.77;3.63;;;;;;;19.00;89.75;101237.78;5034603;28;20029;-80
2022/09/07 00:57:21;;;;;;;7.60;3.88;;;;;;;19.00;90.81;101237.78;5040451;28;20044;-86
2022/09/07 00:59:50;;;;;;;5.95;3.03;;;;;;;19.01;90.39;101245.84;5037807;28;20043;-80
2022/09/07 01:02:16;;;;;;;10.80;3.60;;;;;;;19.10;90.09;101251.03;5038637;28;20754;-81
2022/09/07 01:04:45;;;;;;;4.45;2.13;;;;;;;19.42;88.22;101253.34;5036259;28;20024;-80
2022/09/07 01:07:10;;;;;;;5.78;2.47;;;;;;;19.08;89.62;101256.31;5052396;28;20083;-81
2022/09/07 01:09:37;;;;;;;3.60;2.55;;;;;;;19.34;87.81;101279.44;5035966;28;20688;-84
2022/09/07 01:12:03;;;;;;;6.72;3.58;;;;;;;19.10;89.80;101265.22;5041630;28;20425;-86
2022/09/07 01:14:34;;;;;;;5.80;3.40;;;;;;;19.01;90.70;101267.75;5056839;28;20163;-85
2022/09/07 01:17:36;;;;;;;7.80;3.45;;;;;;;18.86;92.40;101273.63;5040807;28;20118;-84
2022/09/07 01:20:04;;;;;;;6.03;3.47;;;;;;;19.17;89.79;101265.09;5055377;28;20124;-84
2022/09/07 01:22:30;;;;;;;8.93;2.75;;;;;;;19.46;86.78;101259.78;5036839;28;20035;-80
2022/09/07 01:25:20;;;;;;;4.97;2.75;;;;;;;19.63;86.43;101246.50;5040216;28;20024;-80
2022/09/07 01:27:58;;;;;;;6.20;2.88;;;;;;;19.26;89.53;101239.81;5037737;28;20032;-80
2022/09/07 01:30:25;;;;;;;5.38;2.53;;;;;;;18.87;91.20;101226.22;5035675;28;20159;-80
2022/09/07 01:33:28;;;;;;;3.90;2.08;;;;;;;19.14;90.56;101231.88;5053425;28;20378;-85
2022/09/07 01:36:05;;;;;;;6.50;2.50;;;;;;;19.19;88.99;101228.56;5036213;28;20051;-85
2022/09/07 01:38:46;;;;;;;4.10;2.38;;;;;;;19.24;88.35;101219.56;5057490;28;20484;-81
2022/09/07 01:41:18;;;;;;;3.50;2.25;;;;;;;19.39;87.52;101216.50;5040704;28;20488;-80
2022/09/07 01:43:52;;;;;;;4.78;2.65;;;;;;;19.53;86.15;101219.09;5040144;28;20598;-80
2022/09/07 01:46:24;;;;;;;5.03;2.72;;;;;;;19.23;88.46;101214.34;5038112;28;20078;-80
2022/09/07 01:48:52;;;;;;;3.30;2.50;;;;;;;19.59;84.80;101219.41;5039027;28;20024;-80
2022/09/07 01:51:22;;;;;;;4.70;2.50;;;;;;;19.57;88.05;101228.34;5027149;28;20351;-81
2022/09/07 01:53:53;;;;;;;6.75;2.88;;;;;;;19.36;87.47;101208.84;5036361;28;20036;-84
2022/09/07 01:56:49;;;;;;;4.97;2.90;;;;;;;19.35;88.27;101216.53;5053027;28;20036;-83
2022/09/07 01:59:36;;;;;;;5.15;3.08;;;;;;;19.67;85.67;101216.00;5018392;28;20291;-81
2022/09/07 02:02:08;;;;;;;4.80;2.50;;;;;;;19.74;85.14;101215.09;5040315;28;20630;-81
2022/09/07 02:05:14;;;;;;;5.85;2.70;;;;;;;19.67;84.95;101207.50;5054144;28;20096;-80
2022/09/07 02:07:55;;;;;;;5.00;2.70;;;;;;;19.78;83.75;101212.22;4980826;28;20120;-81
2022/09/07 02:10:25;;;;;;;5.38;2.45;;;;;;;19.26;87.83;101217.09;5021357;28;20098;-81
2022/09/07 02:12:54;;;;;;;4.65;1.90;;;;;;;19.28;86.34;101208.97;5039046;28;20031;-81
2022/09/07 02:15:26;;;;;;;1.92;1.70;;;;;;;19.55;83.08;101205.28;5039064;28;20039;-80
2022/09/07 02:17:57;;;;;;;3.15;1.92;;;;;;;19.53;84.79;101209.78;5058462;28;20042;-84
2022/09/07 02:20:29;;;;;;;3.60;1.77;;;;;;;19.53;83.29;101202.06;5039245;28;20078;-80
2022/09/07 02:22:57;;;;;;;;;;;;;;;19.60;82.66;101201.13;5060575;28;20488;-81
2022/09/07 02:25:30;;;;;;;2.42;1.60;;;;;;;19.50;82.52;101205.75;5044002;28;19995;-81
2022/09/07 02:28:03;;;;;;;4.18;2.00;;;;;;;19.41;83.70;101206.31;5041399;28;20032;-81
2022/09/07 02:30:29;;;;;;;1.25;1.13;;;;;;;19.51;82.83;101204.53;5054183;28;20075;-83
2022/09/07 02:32:57;;;;;;;1.65;1.15;;;;;;;19.62;82.12;101188.09;5058556;28;20036;-84
2022/09/07 02:35:23;;;;;;;2.85;1.98;;;;;;;19.57;82.90;101188.59;5041896;28;20041;-83
2022/09/07 02:37:51;;;;;;;4.60;1.52;;;;;;;19.61;82.01;101197.88;5059411;28;20048;-84
2022/09/07 02:40:16;;;;;;;2.60;1.52;;;;;;;19.64;81.89;101199.81;5057541;28;20810;-81
2022/09/07 02:42:42;;;;;;;3.13;1.50;;;;;;;19.54;82.65;101192.28;5039921;28;20025;-80
2022/09/07 02:45:11;;;;;;;3.15;1.50;;;;;;;19.56;82.52;101206.06;5056206;28;20051;-84
2022/09/07 02:48:19;;;;;;;2.92;1.80;;;;;;;19.29;84.41;101204.91;5059211;28;20056;-82
2022/09/07 02:51:30;;;;;;;3.08;1.73;;;;;;;19.43;83.38;101208.72;4998453;28;20133;-84
2022/09/07 02:54:29;;;;;;;2.55;1.42;;;;;;;19.54;83.09;101203.66;5058234;28;20439;-80
2022/09/07 02:57:20;;;;;;;2.22;1.90;;;;;;;19.34;84.45;101199.97;5037185;28;20049;-83
2022/09/07 02:59:55;;;;;;;2.30;1.75;;;;;;;19.36;84.50;101201.13;5042875;28;20033;-83
2022/09/07 03:02:26;;;;;;;4.90;2.22;;;;;;;19.41;83.97;101199.84;5061987;28;20035;-83
2022/09/07 03:05:04;;;;;;;2.92;1.75;;;;;;;19.27;85.64;101184.66;5061530;28;20158;-81
2022/09/07 03:07:35;;;;;;;3.20;2.05;;;;;;;19.44;83.99;101179.91;5052090;28;20028;-83
2022/09/07 03:10:03;;;;;;;2.22;1.95;;;;;;;19.54;83.85;101177.31;5040801;28;20033;-84
2022/09/07 03:12:40;;;;;;;5.13;2.30;;;;;;;19.27;85.44;101167.63;5066428;28;20508;-83
2022/09/07 03:15:06;;;;;;;3.10;1.90;;;;;;;19.41;84.76;101154.41;5039170;28;20051;-81
2022/09/07 03:17:31;;;;;;;3.70;1.90;;;;;;;19.40;85.32;101164.19;5045661;28;20076;-83
2022/09/07 03:19:57;;;;;;;3.55;1.90;;;;;;;19.19;85.19;101154.78;5045744;28;20490;-81
2022/09/07 03:22:22;;;;;;;3.60;2.40;;;;;;;19.54;84.95;101140.41;5060414;28;20029;-81
2022/09/07 03:24:47;;;;;;;3.22;2.40;;;;;;;19.47;84.51;101118.63;5053963;28;20031;-81
2022/09/07 03:27:13;;;;;;;3.33;2.08;;;;;;;19.41;84.04;101117.50;5041811;28;20048;-80
2022/09/07 03:29:38;;;;;;;3.30;2.13;;;;;;;19.48;85.13;101114.56;5047173;28;20074;-83
2022/09/07 03:32:03;;;;;;;3.50;2.70;;;;;;;19.26;84.73;101111.28;5041235;28;20382;-81
2022/09/07 03:34:30;;;;;;;3.63;2.80;;;;;;;19.29;85.29;101111.25;5056619;28;20495;-83
2022/09/07 03:36:55;;;;;;;5.10;2.85;;;;;;;19.35;84.41;101111.53;5061262;28;20403;-81
2022/09/07 03:39:22;;;;;;;5.15;3.00;;;;;;;19.38;85.08;101112.72;5054603;28;20041;-83
2022/09/07 03:41:48;;;;;;;6.55;3.05;;;;;;;19.16;86.12;101104.56;5062972;28;20431;-83
2022/09/07 03:44:13;;;;;;;3.92;3.38;;;;;;;19.27;85.30;101119.38;5059923;28;20095;-83
2022/09/07 03:46:39;;;;;;;8.23;4.68;;;;;;;19.22;86.09;101114.19;5055140;28;20408;-82
2022/09/07 03:49:04;;;;;;;6.10;4.80;;;;;;;19.36;85.14;101118.81;5043702;28;20052;-84
2022/09/07 03:51:29;;;;;;;16.27;5.90;;;;;;;19.35;84.94;101113.56;5043656;28;20036;-83
2022/09/07 03:53:56;;;;;;;6.82;5.05;;;;;;;19.40;84.26;101113.88;5064017;28;20051;-83
2022/09/07 03:56:23;;;;;;;7.18;5.25;;;;;;;19.42;83.88;101121.97;5046042;28;20063;-81
2022/09/07 03:58:50;;;;;;;9.38;5.60;;;;;;;19.37;84.42;101125.28;5044723;28;20028;-83
2022/09/07 04:01:18;;;;;;;10.85;6.72;;;;;;;19.39;83.91;101122.81;5054650;28;20085;-84
2022/09/07 04:03:44;;;;;;;8.93;5.72;;;;;;;19.36;84.23;101126.53;5046205;28;20119;-83
2022/09/07 04:06:11;;;;;;;8.68;7.05;;;;;;;19.33;84.70;101127.38;5037216;28;20028;-81
2022/09/07 04:08:38;;;;;;;9.90;7.75;;;;;;;19.27;85.24;101133.56;5055340;28;20115;-81
2022/09/07 04:11:05;;;;;;;11.13;7.68;;;;;;;19.33;84.14;101130.22;5040882;28;20036;-83
2022/09/07 04:13:31;;;;;;;11.40;7.30;;;;;;;19.27;85.02;101129.94;5060405;28;20177;-83
2022/09/07 04:15:57;;;;;;;11.98;7.65;;;;;;;19.18;86.28;101124.00;5059630;28;20055;-83
2022/09/07 04:18:23;;;;;;;12.50;7.80;;;;;;;19.27;85.33;101124.28;5039627;28;20029;-81
2022/09/07 04:20:49;;;;;;;29.30;10.02;;;;;;;19.27;85.35;101115.75;5038331;28;20086;-83
2022/09/07 04:23:16;;;;;;;13.43;8.38;;;;;;;19.27;85.14;101127.91;5026219;28;20036;-83
2022/09/07 04:25:49;;;;;;;13.18;9.75;;;;;;;19.22;87.06;101119.88;5057651;28;20128;-81
2022/09/07 04:28:19;;;;;;;15.48;10.90;;;;;;;19.16;87.13;101124.44;5058298;28;20025;-81
2022/09/07 04:30:45;;;;;;;13.50;9.27;;;;;;;19.26;87.28;101125.50;5057890;28;20040;-83
2022/09/07 04:33:12;;;;;;;16.30;9.75;;;;;;;19.23;85.93;101118.66;5060581;28;20311;-83
2022/09/07 04:35:39;;;;;;;11.95;8.65;;;;;;;19.36;86.28;101123.72;5053366;28;20500;-81
2022/09/07 04:38:05;;;;;;;17.02;11.63;;;;;;;19.31;85.81;101116.47;5043189;28;20032;-83
2022/09/07 04:40:34;;;;;;;19.58;13.27;;;;;;;19.06;88.72;101119.75;5067744;28;20106;-84
2022/09/07 04:43:00;;;;;;;14.00;10.98;;;;;;;19.19;86.31;101111.44;5041180;28;20468;-83
2022/09/07 04:45:25;;;;;;;14.48;10.30;;;;;;;19.19;87.09;101108.59;5057173;28;20075;-81
2022/09/07 04:47:51;;;;;;;15.98;10.32;;;;;;;19.21;87.47;101112.59;5048795;28;20041;-81
2022/09/07 04:50:17;;;;;;;14.38;9.23;;;;;;;19.24;85.89;101105.25;5040167;28;20434;-83
2022/09/07 04:52:43;;;;;;;22.92;9.75;;;;;;;19.22;87.04;101110.56;5055437;28;20036;-83
2022/09/07 04:55:09;;;;;;;12.15;8.80;;;;;;;19.18;86.65;101109.81;5040294;28;20043;-83
2022/09/07 04:57:35;;;;;;;14.30;8.98;;;;;;;19.15;87.69;101107.84;5044281;28;20036;-83
2022/09/07 05:00:00;;;;;;;13.05;10.07;;;;;;;19.22;86.90;101114.19;5052323;28;20044;-83
2022/09/07 05:02:26;;;;;;;11.93;9.15;;;;;;;19.21;87.11;101115.44;5036403;28;20036;-81
2022/09/07 05:04:51;;;;;;;11.73;9.00;;;;;;;19.32;85.64;101120.13;5054239;28;20075;-83
2022/09/07 05:07:17;;;;;;;12.48;8.82;;;;;;;19.33;86.09;101114.00;5038520;28;20384;-81
2022/09/07 05:09:42;;;;;;;14.23;10.35;;;;;;;19.16;87.60;101127.25;5058881;28;20119;-83
2022/09/07 05:12:08;;;;;;;16.67;11.32;;;;;;;19.17;87.06;101130.94;5056275;28;20058;-83
2022/09/07 05:14:33;;;;;;;18.02;11.68;;;;;;;19.23;86.62;101132.84;5046179;28;20024;-81
2022/09/07 05:16:59;;;;;;;18.50;11.80;;;;;;;19.29;85.79;101125.44;5039812;28;20064;-83
2022/09/07 05:19:25;;;;;;;16.30;11.75;;;;;;;19.23;87.99;101141.34;5057619;28;20037;-84
2022/09/07 05:21:50;;;;;;;20.13;14.57;;;;;;;19.13;89.81;101144.38;5041559;28;20036;-81
2022/09/07 05:24:17;;;;;;;23.33;15.68;;;;;;;19.07;89.13;101153.34;5053602;28;20027;-83
2022/09/07 05:26:42;;;;;;;18.15;12.88;;;;;;;19.11;88.29;101155.34;5056737;28;20155;-81
2022/09/07 05:29:07;;;;;;;18.05;13.13;;;;;;;19.26;88.02;101163.16;5058676;28;20104;-83
2022/09/07 05:31:33;;;;;;;19.70;13.50;;;;;;;19.35;86.92;101167.50;5031541;28;20514;-83
2022/09/07 05:33:58;;;;;;;21.58;13.20;;;;;;;19.18;88.28;101155.22;5052538;28;20043;-84
2022/09/07 05:36:25;;;;;;;21.30;12.73;;;;;;;19.33;86.28;101152.94;5059155;28;20035;-82
2022/09/07 05:38:52;;;;;;;20.33;13.50;;;;;;;19.38;86.66;101156.09;5036392;28;20093;-83
2022/09/07 05:41:19;;;;;;;24.52;14.70;;;;;;;18.76;91.83;101155.44;5033960;28;20051;-82
2022/09/07 05:43:46;;;;;;;28.77;17.25;;;;;;;19.01;92.77;101157.91;5052034;28;20024;-84
2022/09/07 05:46:14;;;;;;;27.20;15.15;;;;;;;19.11;88.01;101167.50;5033141;28;20059;-82
2022/09/07 05:48:40;;;;;;;25.85;16.17;;;;;;;19.02;89.42;101164.41;5036335;28;20040;-82
2022/09/07 05:51:06;;;;;;;22.90;15.23;;;;;;;19.09;88.09;101164.28;5035515;28;20146;-84
2022/09/07 05:53:50;;;;;;;22.30;13.85;;;;;;;19.07;91.64;101158.22;5037112;28;20031;-81
2022/09/07 05:56:16;;;;;;;23.13;15.40;;;;;;;18.99;90.87;101153.91;5047155;28;20132;-84
2022/09/07 05:58:41;;;;;;;24.35;15.18;;;;;;;19.04;91.48;101159.09;5028156;28;20035;-82
2022/09/07 06:01:11;;;;;;;21.67;13.70;;;;;;;18.84;89.75;101156.97;5037435;28;20068;-83
2022/09/07 06:03:39;;;;;;;19.90;12.23;;;;;;;19.00;88.32;101152.69;5031634;28;20029;-82
2022/09/07 06:06:07;;;;;;;20.33;13.60;;;;;;;18.67;93.41;101149.50;5038395;28;20039;-83
2022/09/07 06:08:34;;;;;;;19.85;12.77;;;;;;;18.29;96.12;101156.09;5046879;28;20039;-82
2022/09/07 06:11:07;;;;;;;18.55;12.20;;;;;;;18.77;90.55;101151.38;5045603;28;20095;-80
2022/09/07 06:13:33;;;;;;;21.05;11.95;;;;;;;19.29;87.25;101150.19;5053746;28;20075;-82
2022/09/07 06:16:03;;;;;;;16.85;10.88;;;;;;;19.46;85.00;101159.63;5068369;28;20096;-81
2022/09/07 06:18:35;;;;;;;17.73;10.63;;;;;;;19.53;86.06;101168.00;5065967;28;20086;-80
2022/09/07 06:21:06;;;;;;;18.50;11.05;;;;;;;19.23;85.65;101163.25;5062354;28;20041;-81
2022/09/07 06:23:32;;;;;;;17.55;10.73;;;;;;;19.35;85.57;101167.50;5058978;28;20079;-81
2022/09/07 06:25:58;;;;;;;17.65;10.10;;;;;;;19.39;83.77;101160.53;5047283;28;20033;-87
2022/09/07 06:28:29;;;;;;;17.30;10.45;;;;;;;19.44;85.31;101164.91;5047388;28;20125;-85
2022/09/07 06:31:03;;;;;;;14.57;10.38;;;;;;;19.36;83.97;101163.44;5057840;28;20028;-81
2022/09/07 06:33:28;;;;;;;14.75;9.30;;;;;;;19.40;84.50;101164.19;5025173;28;20768;-79
2022/09/07 06:35:58;;;;;;;13.43;9.00;;;;;;;19.35;85.42;101162.63;5058866;28;20079;-80
2022/09/07 06:38:28;;;;;;;22.40;11.80;;;;;;;19.24;85.51;101167.69;5053604;28;20086;-80
2022/09/07 06:40:53;;;;;;;18.20;10.10;;;;;;;19.37;86.11;101173.53;5035775;28;20044;-81
2022/09/07 06:43:20;;;;;;;20.70;12.10;;;;;;;19.34;87.34;101177.25;5064996;28;20047;-83
2022/09/07 06:45:54;;;;;;;25.73;14.68;;;;;;;19.24;87.64;101167.69;5060515;28;20028;-81
2022/09/07 06:48:20;;;;;;;17.55;12.35;;;;;;;19.47;84.87;101169.72;5060960;28;20171;-79
2022/09/07 06:51:17;;;;;;;22.15;12.18;;;;;;;19.42;85.26;101170.22;5058416;28;20463;-80
2022/09/07 06:53:43;;;;;;;21.73;12.60;;;;;;;19.42;84.79;101176.69;5064791;28;20041;-79
2022/09/07 06:56:12;;;;;;;21.17;12.40;;;;;;;19.50;83.22;101174.53;5065670;28;20119;-79
2022/09/07 06:58:37;;;;;;;22.58;12.02;;;;;;;19.52;83.48;101172.06;5045290;28;20031;-79
2022/09/07 07:01:12;;;;;;;26.77;16.27;;;;;;;19.36;84.58;101174.78;5045931;28;20036;-79
2022/09/07 07:03:37;;;;;;;20.25;13.57;;;;;;;19.44;83.20;101187.63;5059713;28;20098;-82
2022/09/07 07:06:03;;;;;;;26.10;15.73;;;;;;;19.45;84.14;101189.22;5055973;28;20473;-79
2022/09/07 07:08:29;;;;;;;25.55;15.07;;;;;;;19.50;83.90;101197.22;5061751;28;20029;-81
2022/09/07 07:10:54;;;;;;;23.35;13.80;;;;;;;19.57;82.84;101194.28;5045155;28;20146;-80
2022/09/07 07:13:20;;;;;;;27.95;15.55;;;;;;;19.56;83.14;101194.72;5061410;28;20037;-82
2022/09/07 07:15:45;;;;;;;24.63;14.27;;;;;;;19.59;82.97;101194.66;5042234;28;20033;-82
2022/09/07 07:18:12;;;;;;;24.35;14.15;;;;;;;19.64;82.10;101191.31;5059488;28;20063;-80
2022/09/07 07:20:39;;;;;;;24.35;14.00;;;;;;;19.50;85.47;101202.91;5062692;28;20566;-83
2022/09/07 07:23:06;;;;;;;22.05;13.25;;;;;;;19.43;83.39;101200.22;5045323;28;20123;-79
2022/09/07 07:25:35;;;;;;;22.52;13.05;;;;;;;19.57;84.05;101197.13;5044079;28;20028;-79
2022/09/07 07:28:01;;;;;;;24.92;14.18;;;;;;;19.48;84.07;101197.69;5058822;28;20488;-80
2022/09/07 07:30:27;;;;;;;26.20;15.82;;;;;;;19.49;85.40;101195.66;5058377;28;20107;-80
2022/09/07 07:32:52;;;;;;;34.53;20.05;;;;;;;18.85;90.69;101189.78;5042019;28;20032;-80
2022/09/07 07:35:18;;;;;;;23.33;14.43;;;;;;;19.45;84.82;101194.91;5058460;28;20029;-80
2022/09/07 07:37:43;;;;;;;24.52;13.50;;;;;;;19.65;83.85;101194.97;5058394;28;20039;-81
2022/09/07 07:40:10;;;;;;;26.10;16.10;;;;;;;19.57;83.57;101199.97;5063647;28;20127;-80
2022/09/07 07:42:37;;;;;;;32.35;19.55;;;;;;;19.28;86.75;101194.75;5031801;28;20110;-83
2022/09/07 07:45:03;;;;;;;27.38;16.67;;;;;;;19.49;84.21;101207.00;5043364;28;20039;-81
2022/09/07 07:47:29;;;;;;;29.95;17.38;;;;;;;19.54;86.12;101214.22;5060131;28;20060;-82
2022/09/07 07:49:54;;;;;;;25.92;16.33;;;;;;;19.53;85.45;101219.09;5045207;28;20032;-79
2022/09/07 07:52:19;;;;;;;30.00;17.38;;;;;;;19.57;85.07;101224.72;5041082;28;20516;-79
2022/09/07 07:54:45;;;;;;;26.88;16.95;;;;;;;19.60;85.38;101221.00;5060993;28;20025;-84
2022/09/07 07:57:11;;;;;;;26.60;14.88;;;;;;;19.60;86.44;101218.16;5055431;28;20447;-82
2022/09/07 07:59:37;;;;;;;28.83;18.63;;;;;;;19.75;86.54;101230.09;5063528;28;20112;-79
2022/09/07 08:02:07;;;;;;;23.23;14.80;;;;;;;19.66;86.58;101222.91;5040642;28;20094;-81
2022/09/07 08:04:33;;;;;;;33.05;16.27;;;;;;;19.63;85.25;101223.78;5063256;28;20056;-82
2022/09/07 08:06:59;;;;;;;26.27;16.02;;;;;;;19.76;84.08;101226.84;5060399;28;20039;-81
2022/09/07 08:09:24;;;;;;;28.15;19.90;;;;;;;19.68;85.77;101231.81;5046405;28;20025;-79
2022/09/07 08:11:50;;;;;;;23.80;13.23;;;;;;;20.14;83.79;101229.38;5040568;28;20044;-82
2022/09/07 08:14:15;;;;;;;35.88;15.90;;;;;;;19.97;85.30;101230.53;5062576;28;20154;-79
2022/09/07 08:16:42;;;;;;;14.65;8.88;;;;;;;21.03;82.01;101226.69;5043374;28;20043;-79
2022/09/07 08:19:07;;;;;;;28.98;10.77;;;;;;;21.18;80.85;101232.81;5065018;28;20043;-81
2022/09/07 08:21:33;;;;;;;20.38;13.30;;;;;;;21.42;75.95;101232.69;5034569;28;20036;-79
2022/09/07 08:23:58;;;;;;;25.30;16.40;;;;;;;20.15;84.99;101241.53;5035964;28;20028;-81
2022/09/07 08:26:24;;;;;;;30.58;19.35;;;;;;;19.81;86.63;101251.09;5054606;28;20028;-82
2022/09/07 08:28:49;;;;;;;24.85;16.38;;;;;;;19.74;85.59;101256.91;5040902;28;20556;-79
2022/09/07 08:31:16;;;;;;;23.67;14.00;;;;;;;19.79;86.18;101256.41;5038494;28;20059;-79
2022/09/07 08:33:42;;;;;;;32.15;17.48;;;;;;;19.83;84.87;101254.31;5057532;28;20575;-80
2022/09/07 08:36:18;;;;;;;19.83;12.25;;;;;;;20.04;83.20;101248.22;5057672;28;20032;-80
2022/09/07 08:38:44;;;;;;;19.88;14.07;;;;;;;20.01;85.46;101257.63;5056990;28;20036;-79
2022/09/07 08:41:34;;;;;;;22.40;14.85;;;;;;;19.70;86.31;101260.59;5057493;28;20071;-78
2022/09/07 08:44:02;;;;;;;23.08;14.93;;;;;;;19.75;86.04;101267.03;5043932;28;20033;-82
2022/09/07 08:46:36;;;;;;;22.98;14.52;;;;;;;20.10;84.32;101274.91;5062707;28;20097;-78
2022/09/07 08:49:05;;;;;;;26.02;16.02;;;;;;;19.59;86.15;101274.16;5040920;28;20032;-83
2022/09/07 08:51:45;;;;;;;20.38;13.25;;;;;;;19.89;83.65;101280.97;5039464;28;20059;-81
2022/09/07 08:54:12;;;;;;;24.85;15.07;;;;;;;20.04;83.78;101276.63;5043575;28;20117;-81
2022/09/07 08:56:46;;;;;;;20.95;14.20;;;;;;;19.91;85.11;101281.34;5061122;28;20036;-79
2022/09/07 08:59:23;;;;;;;20.13;14.15;;;;;;;20.12;82.19;101282.22;5047308;28;20107;-81
2022/09/07 09:01:48;;;;;;;18.98;13.38;;;;;;;20.13;82.53;101289.47;5057408;28;20298;-81
2022/09/07 09:04:20;;;;;;;23.08;13.55;;;;;;;20.22;82.98;101276.31;5056747;28;20121;-81
2022/09/07 09:07:24;;;;;;;20.67;14.38;;;;;;;19.93;83.26;101276.03;5056985;28;20037;-78
2022/09/07 09:10:16;;;;;;;22.67;13.48;;;;;;;19.98;84.07;101277.56;5037076;28;20075;-79
2022/09/07 09:12:57;;;;;;;24.50;14.82;;;;;;;19.89;84.50;101276.09;5057114;28;20388;-81
2022/09/07 09:15:47;;;;;;;25.52;17.95;;;;;;;19.70;87.18;101283.31;5057761;28;20040;-79
2022/09/07 09:18:37;;;;;;;27.50;17.02;;;;;;;19.81;86.54;101279.50;5033226;28;20467;-78
2022/09/07 09:21:06;;;;;;;23.05;16.38;;;;;;;19.79;86.12;101287.66;5034327;28;20081;-79
2022/09/07 09:23:43;;;;;;;21.25;15.55;;;;;;;20.11;84.71;101295.59;5053829;28;20540;-79
2022/09/07 09:26:19;;;;;;;24.23;14.85;;;;;;;20.20;83.82;101293.00;5055001;28;20078;-79
2022/09/07 09:28:44;;;;;;;22.80;14.20;;;;;;;20.27;85.59;101289.22;5061244;28;20032;-79
2022/09/07 09:31:18;;;;;;;26.58;17.60;;;;;;;20.26;85.10;101296.94;5035219;28;20036;-79
2022/09/07 09:34:16;;;;;;;22.30;16.10;;;;;;;20.27;84.89;101292.84;5041894;28;20488;-81
2022/09/07 09:36:50;;;;;;;16.83;10.57;;;;;;;20.57;84.88;101284.56;5041742;28;20060;-80
2022/09/07 09:39:33;;;;;;;20.95;14.45;;;;;;;20.50;84.90;101283.47;5049962;28;20504;-78
2022/09/07 09:42:00;;;;;;;;;;;;;;;20.53;84.64;101287.47;5060060;28;20032;-79
2022/09/07 09:44:33;;;;;;;15.68;11.00;;;;;;;20.71;84.62;101278.63;5041479;28;20366;-79
2022/09/07 09:47:01;;;;;;;17.75;12.88;;;;;;;20.76;82.10;101278.09;5036083;28;20405;-81
2022/09/07 09:49:35;;;;;;;14.13;9.77;;;;;;;20.84;83.23;101279.53;5059325;28;20040;-79
2022/09/07 09:52:03;;;;;;;20.00;13.15;;;;;;;20.94;80.63;101280.56;5042574;28;20031;-81
2022/09/07 09:54:43;;;;;;;15.93;10.52;;;;;;;20.76;82.37;101280.13;5054978;28;20508;-79
2022/09/07 09:57:51;;;;;;;22.13;14.52;;;;;;;20.45;84.04;101292.53;5052706;28;20079;-81
2022/09/07 10:00:20;;;;;;;20.23;12.95;;;;;;;20.43;83.04;101286.47;5038467;28;23081;-80
2022/09/07 10:02:57;;;;;;;16.63;12.77;;;;;;;20.67;82.36;101289.25;5034783;28;20166;-79
2022/09/07 10:05:40;;;;;;;22.10;12.63;;;;;;;20.77;82.50;101284.59;5055602;28;20700;-79
2022/09/07 10:08:25;;;;;;;12.30;8.57;;;;;;;21.18;83.18;101281.22;5035700;28;20049;-81
2022/09/07 10:11:02;;;;;;;16.35;13.70;;;;;;;20.84;82.53;101279.53;5033875;28;20108;-80
2022/09/07 10:13:36;;;;;;;20.45;11.98;;;;;;;20.82;82.07;101267.78;5034166;28;21441;-80
2022/09/07 10:16:05;;;;;;;15.70;10.77;;;;;;;20.85;81.52;101277.50;5032053;28;20060;-79
2022/09/07 10:18:37;;;;;;;20.45;13.20;;;;;;;20.78;82.56;101278.44;5056370;28;20029;-79
2022/09/07 10:21:31;;;;;;;19.77;15.52;;;;;;;20.95;81.65;101272.81;5038360;28;20032;-80
2022/09/07 10:24:13;;;;;;;20.02;13.23;;;;;;;20.85;81.33;101271.78;5055597;28;20449;-79
2022/09/07 10:26:40;;;;;;;15.60;11.80;;;;;;;20.91;81.52;101276.56;5049071;28;20047;-80
2022/09/07 10:29:12;;;;;;;17.83;12.20;;;;;;;20.91;83.42;101270.88;5047137;28;20029;-78
2022/09/07 10:31:53;;;;;;;21.85;12.25;;;;;;;21.32;80.54;101266.66;5030941;28;20647;-80
2022/09/07 10:34:36;;;;;;;25.58;13.63;;;;;;;22.27;77.02;101277.31;5063261;28;20090;-78
2022/09/07 10:37:08;;;;;;;38.67;16.30;;;;;;;22.80;75.07;101269.25;5045748;28;20064;-79
2022/09/07 10:39:40;;;;;;;28.55;16.20;;;;;;;22.32;74.41;101266.13;5054190;28;20045;-78
2022/09/07 10:42:13;;;;;;;;;;;;;;;22.37;76.79;101267.66;5039621;28;20056;-78
2022/09/07 10:44:42;;;;;;;27.20;16.33;;;;;;;22.88;74.38;101267.78;5048338;28;19934;-78
2022/09/07 10:48:02;;;;;;;25.15;14.48;;;;;;;23.02;73.74;101268.63;5061208;28;20029;-78
2022/09/07 10:50:49;;;;;;;21.55;11.95;;;;;;;22.42;74.80;101258.53;5019547;28;20062;-81
2022/09/07 10:53:27;;;;;;;20.02;11.55;;;;;;;22.36;75.55;101251.78;5050934;28;20063;-79
2022/09/07 10:56:07;;;;;;;24.27;11.48;;;;;;;22.26;76.21;101258.59;5065750;28;20032;-80
2022/09/07 10:59:03;;;;;;;19.45;12.20;;;;;;;21.88;75.62;101250.63;5062936;28;20127;-80
2022/09/07 11:01:32;;;;;;;24.52;10.65;;;;;;;22.38;76.51;101255.00;5049755;28;20052;-81
2022/09/07 11:04:19;;;;;;;15.40;10.48;;;;;;;22.50;72.46;101251.38;5050542;28;20493;-81
2022/09/07 11:06:48;;;;;;;18.27;10.75;;;;;;;22.41;75.57;101254.09;5059753;28;20033;-79
2022/09/07 11:09:16;;;;;;;16.95;8.88;;;;;;;23.23;72.71;101256.53;5043442;28;20017;-80
2022/09/07 11:11:49;;;;;;;17.38;9.70;;;;;;;22.32;72.62;101256.78;5058606;28;20506;-79
2022/09/07 11:14:19;;;;;;;13.85;8.77;;;;;;;22.72;73.30;101256.44;5059869;28;20439;-79
2022/09/07 11:17:01;;;;;;;21.20;8.60;;;;;;;22.72;73.82;101256.44;5061308;28;20032;-80
2022/09/07 11:19:42;;;;;;;;;;;;;;;22.70;70.78;101258.94;5068096;28;20473;-80
2022/09/07 11:22:15;;;;;;;16.20;8.32;;;;;;;22.84;72.63;101260.59;5063110;28;20014;-81
2022/09/07 11:24:55;;;;;;;13.77;8.23;;;;;;;23.31;71.38;101257.88;5047926;28;20450;-81
2022/09/07 11:27:46;;;;;;;16.35;8.27;;;;;;;23.68;69.59;101257.50;5059347;28;20036;-80
2022/09/07 11:30:21;;;;;;;11.27;6.55;;;;;;;24.10;68.00;101263.03;5042870;28;20161;-80
2022/09/07 11:33:17;;;;;;;12.60;7.95;;;;;;;23.88;68.14;101251.53;5040915;28;20043;-82
2022/09/07 11:35:48;;;;;;;11.20;6.88;;;;;;;23.23;70.95;101256.53;5001904;28;20041;-80